Time;durP1;ratioP1;P1;durP2;ratioP2;P2;SDS_P1;SDS_P2;PMS_P1;PMS_P2;Temp;Humidity;BMP_temperature;BMP_pressure;BME280_temperature;BME280_humidity;BME280_pressure;Samples;Min_cycle;Max_cycle;Signal;HPM_P1;HPM_P2
2022/08/21 00:01:14;;;;;;;5.97;3.00;;;;;;;14.12;78.91;101625.78;5056805;28;20064;-69
2022/08/21 00:03:39;;;;;;;7.68;3.80;;;;;;;14.09;79.33;101636.97;5061345;28;20052;-69
2022/08/21 00:06:05;;;;;;;4.82;3.30;;;;;;;14.06;79.33;101625.38;5062021;28;20081;-69
2022/08/21 00:08:30;;;;;;;4.70;3.17;;;;;;;14.03;79.34;101624.63;5055615;28;20037;-68
2022/08/21 00:10:55;;;;;;;5.63;3.15;;;;;;;14.03;78.94;101627.38;5059376;28;20124;-69
2022/08/21 00:13:21;;;;;;;9.73;3.22;;;;;;;14.00;79.28;101619.38;5059831;28;20062;-69
2022/08/21 00:15:48;;;;;;;9.98;2.92;;;;;;;13.99;79.16;101622.25;5060166;28;20052;-69
2022/08/21 00:18:15;;;;;;;7.05;3.38;;;;;;;13.96;79.82;101620.59;5063238;28;20037;-69
2022/08/21 00:20:42;;;;;;;5.85;3.28;;;;;;;13.93;80.06;101614.47;5061283;28;20907;-69
2022/08/21 00:23:07;;;;;;;8.60;3.30;;;;;;;13.92;79.94;101616.34;5058485;28;20040;-69
2022/08/21 00:25:33;;;;;;;6.53;3.60;;;;;;;13.90;79.97;101625.66;5058511;28;20188;-68
2022/08/21 00:27:58;;;;;;;5.60;2.72;;;;;;;13.86;79.50;101619.53;5059053;28;20044;-68
2022/08/21 00:30:25;;;;;;;7.22;3.08;;;;;;;13.84;79.63;101621.50;5064809;28;20029;-69
2022/08/21 00:32:53;;;;;;;6.00;3.05;;;;;;;13.82;79.39;101619.88;5059328;28;20067;-69
2022/08/21 00:35:21;;;;;;;5.93;2.88;;;;;;;13.81;79.49;101615.41;5064958;28;20182;-69
2022/08/21 00:37:47;;;;;;;5.18;2.92;;;;;;;13.79;79.64;101610.88;5060036;28;20028;-69
2022/08/21 00:40:16;;;;;;;5.85;3.05;;;;;;;13.76;80.19;101602.94;5058062;28;20024;-69
2022/08/21 00:42:43;;;;;;;5.63;3.13;;;;;;;13.75;80.62;101600.28;5063887;28;20072;-68
2022/08/21 00:45:09;;;;;;;9.60;3.28;;;;;;;13.73;81.08;101596.81;5062769;28;20047;-69
2022/08/21 00:47:34;;;;;;;3.72;3.10;;;;;;;13.71;80.60;101601.53;5059734;28;20024;-69
2022/08/21 00:50:00;;;;;;;4.93;3.13;;;;;;;13.69;80.84;101601.63;5058264;28;20472;-70
2022/08/21 00:52:29;;;;;;;5.50;3.50;;;;;;;13.68;80.59;101601.75;5057739;28;20471;-69
2022/08/21 00:54:57;;;;;;;4.03;3.10;;;;;;;13.65;80.12;101605.56;5060124;28;20028;-69
2022/08/21 00:57:30;;;;;;;5.13;3.65;;;;;;;13.64;80.73;101606.56;5053534;28;20040;-69
2022/08/21 00:59:59;;;;;;;5.28;3.25;;;;;;;13.62;80.36;101608.53;5061373;28;20107;-69
2022/08/21 01:02:25;;;;;;;7.43;3.92;;;;;;;13.59;81.10;101607.88;5058406;28;20060;-69
2022/08/21 01:04:51;;;;;;;4.90;3.75;;;;;;;13.55;81.33;101609.97;5055850;28;20024;-69
2022/08/21 01:07:17;;;;;;;9.55;3.60;;;;;;;13.57;81.32;101612.56;5057505;28;20438;-70
2022/08/21 01:09:43;;;;;;;6.78;3.50;;;;;;;13.54;80.84;101602.75;5059849;28;20065;-68
2022/08/21 01:12:10;;;;;;;6.82;3.40;;;;;;;13.53;81.36;101609.22;5062712;28;20063;-70
2022/08/21 01:14:35;;;;;;;7.85;3.78;;;;;;;13.52;80.97;101612.91;5054045;28;20094;-69
2022/08/21 01:17:03;;;;;;;5.38;3.58;;;;;;;13.49;81.35;101610.41;5059916;28;20037;-70
2022/08/21 01:19:28;;;;;;;7.90;3.80;;;;;;;13.46;82.03;101607.91;5058040;28;20036;-69
2022/08/21 01:21:54;;;;;;;6.63;3.25;;;;;;;13.40;81.15;101605.63;5053535;28;21947;-69
2022/08/21 01:24:21;;;;;;;5.30;3.47;;;;;;;13.40;82.16;101603.75;5055609;28;20075;-69
2022/08/21 01:26:47;;;;;;;5.60;3.55;;;;;;;13.37;81.89;101593.03;5053672;28;20028;-69
2022/08/21 01:29:37;;;;;;;4.60;3.10;;;;;;;13.39;80.96;101602.00;5058504;28;20475;-69
2022/08/21 01:32:07;;;;;;;7.13;3.38;;;;;;;13.36;81.11;101596.75;5060466;28;20109;-70
2022/08/21 01:34:36;;;;;;;3.50;3.20;;;;;;;13.34;81.12;101596.00;5057654;28;20036;-69
2022/08/21 01:37:02;;;;;;;6.28;2.85;;;;;;;13.32;81.53;101595.22;5054113;28;20025;-69
2022/08/21 01:39:29;;;;;;;7.03;3.30;;;;;;;13.30;81.52;101593.59;5057635;28;20048;-70
2022/08/21 01:41:54;;;;;;;6.28;3.45;;;;;;;13.28;81.22;101605.50;5061216;28;20037;-69
2022/08/21 01:44:24;;;;;;;5.10;3.50;;;;;;;13.29;81.05;101600.94;5059332;28;20091;-69
2022/08/21 01:46:50;;;;;;;7.32;3.20;;;;;;;13.24;81.18;101598.53;5057353;28;20036;-69
2022/08/21 01:49:15;;;;;;;8.25;3.60;;;;;;;13.26;81.10;101601.13;5051511;28;20029;-71
2022/08/21 01:51:41;;;;;;;10.38;4.25;;;;;;;13.22;81.07;101605.94;5056361;28;20101;-69
2022/08/21 01:54:07;;;;;;;8.85;3.65;;;;;;;13.20;80.78;101598.81;5048758;28;20025;-70
2022/08/21 01:56:38;;;;;;;8.30;3.58;;;;;;;13.17;81.27;101596.31;5061083;28;20031;-70
2022/08/21 01:59:04;;;;;;;4.18;3.45;;;;;;;13.17;81.19;101593.56;5059343;28;20055;-70
2022/08/21 02:01:29;;;;;;;4.97;3.90;;;;;;;13.16;81.33;101591.81;5062588;28;20028;-69
2022/08/21 02:03:55;;;;;;;8.23;4.07;;;;;;;13.13;81.07;101592.91;5056138;28;20860;-70
2022/08/21 02:06:20;;;;;;;5.15;3.60;;;;;;;13.10;81.27;101584.03;5052286;28;20949;-69
2022/08/21 02:08:46;;;;;;;6.43;4.93;;;;;;;13.08;82.13;101580.56;5049253;28;20041;-70
2022/08/21 02:11:11;;;;;;;8.75;3.58;;;;;;;13.03;82.24;101578.16;5059330;28;20507;-68
2022/08/21 02:13:37;;;;;;;6.15;3.67;;;;;;;12.99;81.86;101576.63;5055956;28;20359;-69
2022/08/21 02:16:03;;;;;;;8.73;4.03;;;;;;;12.98;81.66;101578.47;5061645;28;20024;-70
2022/08/21 02:18:29;;;;;;;5.28;4.03;;;;;;;12.96;82.10;101577.72;5052322;28;20048;-69
2022/08/21 02:20:55;;;;;;;12.18;5.35;;;;;;;12.92;81.26;101576.19;5054154;28;20020;-69
2022/08/21 02:23:20;;;;;;;7.72;3.58;;;;;;;12.90;81.16;101566.34;5056553;28;20068;-69
2022/08/21 02:25:45;;;;;;;9.05;4.03;;;;;;;12.87;81.58;101574.75;5053140;28;20071;-70
2022/08/21 02:28:14;;;;;;;5.10;4.47;;;;;;;12.84;82.43;101577.72;5050030;28;20036;-69
2022/08/21 02:30:44;;;;;;;4.18;3.70;;;;;;;12.84;82.12;101574.97;5055966;28;20451;-69
2022/08/21 02:33:11;;;;;;;6.20;4.07;;;;;;;12.80;82.18;101574.31;5052230;28;20040;-69
2022/08/21 02:35:41;;;;;;;6.03;3.85;;;;;;;12.79;82.17;101574.44;5052862;28;20020;-70
2022/08/21 02:38:11;;;;;;;6.53;4.22;;;;;;;12.79;81.75;101579.91;5054449;28;20051;-70
2022/08/21 02:40:38;;;;;;;5.95;4.18;;;;;;;12.77;81.74;101569.94;5053935;28;20468;-69
2022/08/21 02:43:05;;;;;;;7.00;4.35;;;;;;;12.76;81.78;101565.47;5056341;28;20032;-69
2022/08/21 02:45:31;;;;;;;6.35;4.63;;;;;;;12.77;82.17;101566.31;5054339;28;20107;-70
2022/08/21 02:48:00;;;;;;;11.15;6.25;;;;;;;12.73;83.99;101571.16;5059677;28;20120;-70
2022/08/21 02:50:29;;;;;;;7.50;4.57;;;;;;;12.72;82.95;101568.50;5051185;28;20037;-70
2022/08/21 02:52:54;;;;;;;7.25;4.18;;;;;;;12.69;82.06;101572.34;5055473;28;20484;-70
2022/08/21 02:55:21;;;;;;;9.25;4.65;;;;;;;12.65;81.92;101565.34;5053841;28;20075;-70
2022/08/21 02:57:47;;;;;;;8.50;4.45;;;;;;;12.64;82.05;101562.72;5058210;28;20028;-69
2022/08/21 03:00:14;;;;;;;5.78;4.40;;;;;;;12.60;81.96;101569.38;5058756;28;20047;-70
2022/08/21 03:02:40;;;;;;;8.23;3.67;;;;;;;12.55;82.09;101564.25;5061693;28;20048;-70
2022/08/21 03:05:08;;;;;;;8.52;4.50;;;;;;;12.51;82.17;101569.03;5056444;28;20033;-69
2022/08/21 03:07:34;;;;;;;6.80;4.65;;;;;;;12.48;81.58;101569.22;5055443;28;20109;-70
2022/08/21 03:10:00;;;;;;;6.63;4.28;;;;;;;12.44;82.07;101561.38;5060689;28;20108;-70
2022/08/21 03:12:25;;;;;;;7.78;4.25;;;;;;;12.40;82.57;101557.09;5055673;28;20120;-69
2022/08/21 03:14:51;;;;;;;5.63;3.90;;;;;;;12.37;82.42;101563.66;5062098;28;20490;-69
2022/08/21 03:17:16;;;;;;;7.90;4.40;;;;;;;12.31;82.58;101564.06;5058353;28;20120;-70
2022/08/21 03:19:41;;;;;;;9.18;4.97;;;;;;;12.28;81.88;101563.41;5059724;28;20131;-69
2022/08/21 03:22:07;;;;;;;8.63;5.65;;;;;;;12.26;82.29;101558.03;5060396;28;20016;-70
2022/08/21 03:24:32;;;;;;;10.63;4.55;;;;;;;12.25;82.48;101561.75;5064268;28;20036;-70
2022/08/21 03:26:58;;;;;;;8.57;4.75;;;;;;;12.21;82.26;101561.06;5064562;28;21206;-69
2022/08/21 03:29:23;;;;;;;14.63;5.15;;;;;;;12.19;82.65;101557.59;5057802;28;20138;-69
2022/08/21 03:31:48;;;;;;;10.35;4.80;;;;;;;12.16;82.89;101560.50;5062647;28;20120;-69
2022/08/21 03:34:14;;;;;;;9.88;4.35;;;;;;;12.13;82.69;101558.00;5062372;28;20742;-69
2022/08/21 03:36:40;;;;;;;9.57;4.65;;;;;;;12.12;82.97;101553.50;5060407;28;20115;-70
2022/08/21 03:39:05;;;;;;;8.13;4.28;;;;;;;12.09;82.40;101556.47;5060779;28;20177;-69
2022/08/21 03:41:31;;;;;;;6.30;5.10;;;;;;;12.07;84.58;101552.09;5057545;28;20020;-69
2022/08/21 03:43:56;;;;;;;11.10;4.60;;;;;;;12.08;83.57;101551.13;5054307;28;20037;-69
2022/08/21 03:46:22;;;;;;;6.43;4.72;;;;;;;12.05;83.81;101548.59;5054388;28;20491;-69
2022/08/21 03:48:48;;;;;;;8.38;4.85;;;;;;;12.05;83.58;101552.19;5057640;28;20078;-69
2022/08/21 03:51:14;;;;;;;8.90;5.20;;;;;;;12.04;84.69;101552.31;5057125;28;20087;-70
2022/08/21 03:53:40;;;;;;;8.38;5.50;;;;;;;12.03;84.26;101543.25;5060252;28;20115;-69
2022/08/21 03:56:06;;;;;;;7.63;5.95;;;;;;;12.04;84.40;101547.72;5054576;28;20644;-70
2022/08/21 03:58:31;;;;;;;10.73;7.22;;;;;;;12.02;84.67;101541.47;5060075;28;20040;-69
2022/08/21 04:00:59;;;;;;;14.48;8.20;;;;;;;12.05;85.40;101540.41;5056104;28;20028;-69
2022/08/21 04:03:26;;;;;;;11.63;8.85;;;;;;;12.07;86.02;101544.78;5061466;28;20052;-69
2022/08/21 04:05:52;;;;;;;13.85;8.45;;;;;;;12.06;85.37;101553.94;5055617;28;20029;-71
2022/08/21 04:08:21;;;;;;;11.77;8.07;;;;;;;12.05;85.39;101549.47;5060589;28;20040;-69
2022/08/21 04:10:48;;;;;;;14.82;8.95;;;;;;;12.03;86.70;101545.06;5054093;28;20151;-69
2022/08/21 04:13:14;;;;;;;12.98;7.28;;;;;;;12.02;84.89;101549.66;5055722;28;20105;-71
2022/08/21 04:15:40;;;;;;;10.38;7.47;;;;;;;12.00;85.81;101554.34;5058495;28;20040;-69
2022/08/21 04:18:08;;;;;;;14.60;7.82;;;;;;;11.99;85.87;101563.53;5060403;28;20033;-69
2022/08/21 04:20:34;;;;;;;12.57;8.52;;;;;;;11.96;86.09;101563.72;5038562;28;20339;-69
2022/08/21 04:23:01;;;;;;;10.90;7.63;;;;;;;11.94;85.37;101562.97;5053002;28;20632;-69
2022/08/21 04:25:27;;;;;;;10.75;8.70;;;;;;;11.92;86.76;101559.44;5055511;28;20036;-69
2022/08/21 04:27:53;;;;;;;11.23;9.15;;;;;;;11.91;86.41;101555.84;5061954;28;20036;-69
2022/08/21 04:30:19;;;;;;;11.90;8.02;;;;;;;11.92;85.93;101567.63;5045124;28;20136;-69
2022/08/21 04:32:50;;;;;;;12.23;8.40;;;;;;;11.93;86.70;101561.19;5058580;28;20032;-69
2022/08/21 04:35:18;;;;;;;13.88;8.88;;;;;;;11.93;85.98;101564.78;5064797;28;20044;-71
2022/08/21 04:37:44;;;;;;;12.82;7.53;;;;;;;11.94;86.15;101573.88;5060533;28;20779;-69
2022/08/21 04:40:12;;;;;;;13.25;9.02;;;;;;;11.94;87.61;101574.75;5051315;28;20037;-69
2022/08/21 04:42:44;;;;;;;17.52;10.05;;;;;;;11.97;86.51;101579.09;5060451;28;20032;-69
2022/08/21 04:45:15;;;;;;;12.23;8.63;;;;;;;11.97;86.60;101577.25;5058545;28;20025;-69
2022/08/21 04:47:41;;;;;;;13.07;8.27;;;;;;;11.96;86.12;101572.78;5055058;28;20120;-70
2022/08/21 04:50:07;;;;;;;11.18;8.68;;;;;;;11.97;86.52;101568.19;5062866;28;20040;-69
2022/08/21 04:52:32;;;;;;;12.40;8.35;;;;;;;11.98;86.15;101578.13;5056363;28;20759;-69
2022/08/21 04:54:57;;;;;;;10.93;8.20;;;;;;;11.97;86.23;101576.38;5059188;28;20036;-69
2022/08/21 04:57:23;;;;;;;16.77;9.65;;;;;;;11.96;88.21;101564.59;5057732;28;20036;-74
2022/08/21 04:59:50;;;;;;;13.45;7.57;;;;;;;11.98;86.69;101568.09;5063087;28;20027;-70
2022/08/21 05:02:17;;;;;;;14.73;9.00;;;;;;;12.00;87.33;101574.31;5057536;28;20056;-70
2022/08/21 05:04:49;;;;;;;12.27;9.32;;;;;;;12.02;87.89;101579.66;5058480;28;20456;-69
2022/08/21 05:07:18;;;;;;;10.43;8.55;;;;;;;12.04;87.73;101582.31;5062531;28;20044;-70
2022/08/21 05:09:44;;;;;;;15.02;8.85;;;;;;;12.07;88.06;101582.94;5060295;28;20044;-70
2022/08/21 05:12:10;;;;;;;13.07;8.60;;;;;;;12.09;87.53;101582.88;5061108;28;20040;-70
2022/08/21 05:14:36;;;;;;;13.73;9.70;;;;;;;12.11;88.48;101580.91;5068420;28;20040;-69
2022/08/21 05:17:02;;;;;;;13.43;9.32;;;;;;;12.14;88.21;101589.75;5075471;28;20488;-69
2022/08/21 05:19:27;;;;;;;9.27;8.27;;;;;;;12.16;88.11;101595.97;5060165;28;20139;-69
2022/08/21 05:21:54;;;;;;;15.52;8.25;;;;;;;12.20;88.38;101591.19;5055179;28;20341;-70
2022/08/21 05:24:19;;;;;;;12.30;8.80;;;;;;;12.22;88.56;101586.53;5044742;28;20036;-69
2022/08/21 05:26:45;;;;;;;16.33;8.57;;;;;;;12.23;88.47;101586.41;5060036;28;20563;-68
2022/08/21 05:29:12;;;;;;;14.77;8.63;;;;;;;12.29;89.05;101587.84;5047774;28;20036;-69
2022/08/21 05:31:38;;;;;;;15.18;8.13;;;;;;;12.32;88.74;101589.50;5046579;28;20115;-68
2022/08/21 05:34:04;;;;;;;22.98;8.93;;;;;;;12.35;88.60;101600.19;5046232;28;20127;-69
2022/08/21 05:36:30;;;;;;;14.30;8.90;;;;;;;12.38;88.66;101600.00;5063891;28;20032;-69
2022/08/21 05:38:55;;;;;;;15.70;8.48;;;;;;;12.44;88.59;101599.56;5063494;28;20032;-69
2022/08/21 05:41:21;;;;;;;19.80;8.48;;;;;;;12.48;89.40;101599.25;5043780;28;20906;-69
2022/08/21 05:43:47;;;;;;;12.15;7.38;;;;;;;12.50;89.22;101600.03;5065168;28;20032;-70
2022/08/21 05:46:12;;;;;;;14.45;7.63;;;;;;;12.55;88.92;101593.41;5065607;28;20022;-69
2022/08/21 05:48:37;;;;;;;17.00;7.90;;;;;;;12.61;88.42;101601.16;5063204;28;20105;-70
2022/08/21 05:51:09;;;;;;;16.40;8.15;;;;;;;12.65;88.72;101598.09;5063064;28;20044;-70
2022/08/21 05:53:36;;;;;;;16.20;8.05;;;;;;;12.70;88.94;101598.66;5046342;28;20467;-70
2022/08/21 05:56:03;;;;;;;17.60;7.63;;;;;;;12.75;88.57;101603.81;5056702;28;20025;-70
2022/08/21 05:58:30;;;;;;;13.82;8.00;;;;;;;12.78;89.57;101606.31;5062969;28;20052;-69
2022/08/21 06:00:55;;;;;;;21.85;8.20;;;;;;;12.80;88.70;101607.09;5064468;28;20067;-69
2022/08/21 06:03:26;;;;;;;13.50;7.50;;;;;;;12.87;88.22;101605.69;5061270;28;20476;-70
2022/08/21 06:05:52;;;;;;;11.18;7.35;;;;;;;12.92;87.90;101602.63;5062200;28;20899;-70
2022/08/21 06:08:19;;;;;;;14.80;6.55;;;;;;;12.96;88.86;101598.69;5064692;28;20487;-70
2022/08/21 06:10:46;;;;;;;16.80;7.18;;;;;;;13.01;88.14;101602.00;5063908;28;20542;-70
2022/08/21 06:13:12;;;;;;;13.38;7.88;;;;;;;13.05;88.02;101603.50;5066253;28;20051;-70
2022/08/21 06:15:37;;;;;;;15.18;7.40;;;;;;;13.12;88.17;101602.09;5064686;28;20068;-70
2022/08/21 06:18:03;;;;;;;13.02;7.13;;;;;;;13.17;87.98;101605.38;5063914;28;20097;-70
2022/08/21 06:20:29;;;;;;;11.55;7.50;;;;;;;13.24;88.65;101603.09;5065318;28;20476;-70
2022/08/21 06:22:54;;;;;;;17.55;7.53;;;;;;;13.27;88.14;101609.22;5062950;28;20032;-70
2022/08/21 06:25:20;;;;;;;12.10;7.57;;;;;;;13.31;88.21;101604.41;5064038;28;20383;-70
2022/08/21 06:27:46;;;;;;;13.75;7.20;;;;;;;13.36;88.39;101601.34;5064723;28;20040;-70
2022/08/21 06:30:12;;;;;;;14.90;7.05;;;;;;;13.41;88.67;101608.22;5065327;28;20044;-70
2022/08/21 06:32:37;;;;;;;15.73;7.57;;;;;;;13.44;88.48;101599.81;5064323;28;20388;-70
2022/08/21 06:35:04;;;;;;;12.45;6.85;;;;;;;13.52;89.31;101600.13;5067940;28;20047;-69
2022/08/21 06:37:29;;;;;;;12.10;6.45;;;;;;;13.59;88.19;101608.75;5066087;28;20044;-70
2022/08/21 06:39:55;;;;;;;15.43;7.05;;;;;;;13.66;87.80;101609.16;5068148;28;20052;-70
2022/08/21 06:42:20;;;;;;;12.80;6.95;;;;;;;13.71;88.23;101609.72;5067287;28;20032;-71
2022/08/21 06:44:47;;;;;;;14.18;7.68;;;;;;;13.77;89.14;101610.16;5069816;28;20029;-70
2022/08/21 06:47:13;;;;;;;14.18;7.45;;;;;;;13.84;89.41;101615.16;5063309;28;20514;-69
2022/08/21 06:49:39;;;;;;;22.25;8.15;;;;;;;13.89;88.55;101612.94;5068013;28;20111;-71
2022/08/21 06:52:09;;;;;;;13.48;7.03;;;;;;;13.99;89.23;101616.78;5059370;28;20033;-70
2022/08/21 06:54:35;;;;;;;16.98;7.47;;;;;;;14.06;88.62;101609.84;5066180;28;20072;-70
2022/08/21 06:57:00;;;;;;;13.70;7.60;;;;;;;14.13;88.78;101602.94;5058104;28;20063;-70
2022/08/21 06:59:26;;;;;;;17.85;7.07;;;;;;;14.24;87.93;101613.94;5053264;28;20391;-71
2022/08/21 07:01:51;;;;;;;14.68;6.85;;;;;;;14.32;88.20;101607.00;5066965;28;20752;-71
2022/08/21 07:04:16;;;;;;;15.57;8.15;;;;;;;14.40;89.14;101607.28;5066833;28;20063;-70
2022/08/21 07:06:42;;;;;;;17.77;8.27;;;;;;;14.47;89.88;101597.63;5059546;28;20059;-70
2022/08/21 07:09:07;;;;;;;18.33;8.70;;;;;;;14.53;88.45;101599.91;5067339;28;20104;-70
2022/08/21 07:11:35;;;;;;;18.45;8.52;;;;;;;14.64;88.83;101599.97;5066880;28;20452;-69
2022/08/21 07:14:00;;;;;;;21.73;8.23;;;;;;;14.72;88.83;101594.75;5068903;28;20045;-70
2022/08/21 07:16:26;;;;;;;16.05;8.30;;;;;;;14.84;89.59;101598.41;5068801;28;20036;-69
2022/08/21 07:18:51;;;;;;;19.67;9.27;;;;;;;14.96;89.58;101600.16;5067380;28;20484;-70
2022/08/21 07:21:17;;;;;;;18.50;8.90;;;;;;;15.13;89.68;101603.44;5060712;28;20070;-70
2022/08/21 07:23:46;;;;;;;21.15;8.32;;;;;;;15.27;89.58;101601.34;5049447;28;20551;-70
2022/08/21 07:26:15;;;;;;;16.45;8.00;;;;;;;15.44;88.99;101597.25;5059180;28;20468;-70
2022/08/21 07:28:40;;;;;;;23.30;9.07;;;;;;;15.56;89.12;101593.50;5065024;28;20024;-70
2022/08/21 07:31:07;;;;;;;13.93;7.45;;;;;;;15.66;88.35;101601.88;5065030;28;20503;-70
2022/08/21 07:33:34;;;;;;;16.38;7.65;;;;;;;15.70;87.53;101608.88;5066293;28;20043;-70
2022/08/21 07:35:59;;;;;;;15.50;7.22;;;;;;;15.74;87.76;101595.78;5067166;28;20116;-70
2022/08/21 07:38:25;;;;;;;14.88;7.47;;;;;;;15.75;87.52;101601.13;5067242;28;20123;-69
2022/08/21 07:40:54;;;;;;;15.85;7.43;;;;;;;15.77;87.69;101609.25;5065254;28;20123;-70
2022/08/21 07:43:19;;;;;;;22.02;6.82;;;;;;;15.81;86.53;101603.38;5068444;28;20067;-70
2022/08/21 07:45:45;;;;;;;17.15;6.93;;;;;;;15.89;86.83;101597.25;5069217;28;20109;-69
2022/08/21 07:48:11;;;;;;;19.17;6.95;;;;;;;15.95;87.21;101604.13;5067593;28;20044;-69
2022/08/21 07:50:36;;;;;;;23.98;7.32;;;;;;;16.07;87.61;101606.69;5067881;28;20555;-70
2022/08/21 07:53:02;;;;;;;23.02;7.38;;;;;;;16.14;87.51;101608.94;5058963;28;20103;-70
2022/08/21 07:55:28;;;;;;;14.15;6.88;;;;;;;16.20;86.10;101601.06;5052276;28;20048;-71
2022/08/21 07:57:53;;;;;;;17.05;6.93;;;;;;;16.22;85.54;101593.53;5065668;28;20369;-71
2022/08/21 08:00:22;;;;;;;11.48;5.38;;;;;;;16.30;85.67;101604.75;5068404;28;20040;-70
2022/08/21 08:02:50;;;;;;;11.63;6.05;;;;;;;16.38;86.04;101604.13;5064050;28;20407;-70
2022/08/21 08:05:17;;;;;;;12.00;5.25;;;;;;;16.50;86.27;101596.69;5062900;28;20541;-71
2022/08/21 08:07:43;;;;;;;13.85;5.63;;;;;;;16.58;85.85;101597.78;5065253;28;20464;-70
2022/08/21 08:10:10;;;;;;;17.95;5.43;;;;;;;16.70;85.78;101593.13;5065564;28;20032;-69
2022/08/21 08:12:38;;;;;;;20.00;5.40;;;;;;;16.92;84.54;101596.78;5065093;28;20040;-70
2022/08/21 08:15:07;;;;;;;15.30;5.20;;;;;;;17.24;84.65;101603.06;5067042;28;20105;-67
2022/08/21 08:17:32;;;;;;;18.58;5.82;;;;;;;17.66;84.07;101602.13;5065929;28;20508;-70
2022/08/21 08:19:58;;;;;;;15.60;5.40;;;;;;;18.13;81.18;101603.31;5059722;28;20039;-69
2022/08/21 08:22:24;;;;;;;12.80;3.90;;;;;;;18.55;80.08;101592.03;5065080;28;20411;-70
2022/08/21 08:24:51;;;;;;;13.98;4.43;;;;;;;19.06;78.45;101593.63;5065467;28;20051;-70
2022/08/21 08:27:17;;;;;;;16.30;4.80;;;;;;;19.72;76.11;101582.53;5065349;28;20024;-70
2022/08/21 08:29:43;;;;;;;9.95;3.83;;;;;;;20.44;74.20;101590.97;5076972;28;20044;-69
2022/08/21 08:32:09;;;;;;;10.43;4.07;;;;;;;20.66;71.89;101587.78;5065461;28;20531;-70
2022/08/21 08:34:35;;;;;;;13.25;3.63;;;;;;;20.99;70.82;101600.00;5064430;28;20059;-70
2022/08/21 08:37:01;;;;;;;11.43;4.55;;;;;;;21.21;68.45;101594.94;5065265;28;20029;-70
2022/08/21 08:39:27;;;;;;;13.63;3.97;;;;;;;21.06;68.26;101591.91;5072130;28;20052;-70
2022/08/21 08:42:30;;;;;;;13.48;3.90;;;;;;;21.24;71.46;101584.44;5063494;28;20740;-69
2022/08/21 08:45:09;;;;;;;12.35;3.10;;;;;;;21.56;68.94;101578.25;5047563;28;20531;-70
2022/08/21 08:47:37;;;;;;;9.18;3.45;;;;;;;21.81;67.08;101575.59;5064448;28;20055;-70
2022/08/21 08:50:09;;;;;;;14.90;3.20;;;;;;;22.37;67.16;101586.03;5054846;28;20548;-70
2022/08/21 08:52:47;;;;;;;19.92;3.92;;;;;;;22.38;64.79;101579.47;5062878;28;20479;-70
2022/08/21 08:55:18;;;;;;;11.93;3.78;;;;;;;22.52;63.94;101568.72;5054328;28;20048;-70
2022/08/21 08:57:46;;;;;;;9.55;2.90;;;;;;;22.94;64.24;101564.94;5065311;28;20119;-69
2022/08/21 09:00:14;;;;;;;10.57;3.75;;;;;;;23.05;61.26;101561.81;5066554;28;20124;-70
2022/08/21 09:02:42;;;;;;;13.13;3.00;;;;;;;23.15;60.95;101562.50;5064681;28;20044;-69
2022/08/21 09:05:18;;;;;;;5.65;2.70;;;;;;;23.29;60.88;101553.44;5063776;28;20056;-70
2022/08/21 09:08:00;;;;;;;8.38;3.05;;;;;;;23.71;61.27;101557.00;5064437;28;20522;-70
2022/08/21 09:10:50;;;;;;;12.60;3.28;;;;;;;23.84;61.56;101551.72;5073626;28;20087;-69
2022/08/21 09:13:31;;;;;;;7.45;2.78;;;;;;;23.76;59.54;101549.84;5063895;28;20450;-70
2022/08/21 09:16:29;;;;;;;10.05;2.47;;;;;;;23.73;62.42;101549.31;5079745;28;20503;-70
2022/08/21 09:19:27;;;;;;;9.85;3.10;;;;;;;23.91;59.04;101548.03;5062507;28;20127;-69
2022/08/21 09:22:15;;;;;;;9.48;2.75;;;;;;;23.72;58.09;101551.25;5038419;28;20651;-69
2022/08/21 09:25:07;;;;;;;11.52;2.88;;;;;;;23.72;59.77;101550.38;5045494;28;20123;-69
2022/08/21 09:27:33;;;;;;;;;;;;;;;23.84;62.48;101552.59;5061275;28;20056;-70
2022/08/21 09:29:59;;;;;;;8.38;3.20;;;;;;;23.79;58.75;101552.28;5045991;28;20386;-69
2022/08/21 09:32:29;;;;;;;7.65;2.45;;;;;;;23.71;56.80;101557.00;5052662;28;20498;-69
2022/08/21 09:35:00;;;;;;;9.05;2.45;;;;;;;23.59;57.21;101550.91;5065693;28;20567;-70
2022/08/21 09:37:28;;;;;;;9.37;2.70;;;;;;;23.77;57.86;101547.94;5058937;28;20403;-70
2022/08/21 09:39:54;;;;;;;7.18;2.08;;;;;;;24.05;57.16;101557.50;5063444;28;20020;-70
2022/08/21 09:42:38;;;;;;;11.32;2.70;;;;;;;24.15;57.28;101558.16;5064608;28;20044;-69
2022/08/21 09:45:17;;;;;;;11.48;2.92;;;;;;;24.47;57.19;101559.00;5066076;28;20127;-69
2022/08/21 09:47:45;;;;;;;6.80;2.17;;;;;;;24.58;54.96;101555.81;5063763;28;20040;-69
2022/08/21 09:50:23;;;;;;;8.75;2.72;;;;;;;24.55;54.11;101560.88;5045230;28;20139;-68
2022/08/21 09:53:00;;;;;;;7.97;2.83;;;;;;;24.54;54.07;101562.81;5058407;28;20028;-69
2022/08/21 09:58:33;;;;;;;9.27;2.30;;;;;;;24.68;53.91;101552.78;5059115;28;20043;-70
2022/08/21 10:01:01;;;;;;;10.05;2.30;;;;;;;24.96;54.29;101550.28;5065670;28;20020;-70
2022/08/21 10:03:27;;;;;;;8.13;2.78;;;;;;;24.93;53.63;101550.63;5064876;28;20773;-69
2022/08/21 10:05:58;;;;;;;8.52;2.58;;;;;;;24.88;53.64;101547.56;5063059;28;20032;-70
2022/08/21 10:08:27;;;;;;;7.88;2.22;;;;;;;24.96;52.20;101550.28;5063746;28;20460;-70
2022/08/21 10:11:02;;;;;;;8.43;2.35;;;;;;;24.85;53.43;101550.72;5063081;28;20020;-70
2022/08/21 10:13:33;;;;;;;6.00;2.00;;;;;;;25.15;53.63;101548.91;5065326;28;20119;-70
2022/08/21 10:16:30;;;;;;;7.38;2.83;;;;;;;25.36;55.03;101548.13;5064188;28;20037;-69
2022/08/21 10:19:33;;;;;;;11.63;2.40;;;;;;;25.51;53.60;101553.72;5061702;28;20162;-69
2022/08/21 10:22:08;;;;;;;8.85;2.47;;;;;;;25.40;51.14;101557.84;5055184;28;20102;-69
2022/08/21 10:25:06;;;;;;;6.57;2.13;;;;;;;25.54;51.40;101557.00;5062272;28;20567;-69
2022/08/21 10:28:00;;;;;;;9.20;2.88;;;;;;;25.60;50.45;101541.41;5055667;28;20044;-69
2022/08/21 10:30:37;;;;;;;4.07;2.45;;;;;;;26.02;51.24;101549.09;5045288;28;20099;-69
2022/08/21 10:33:23;;;;;;;7.53;2.40;;;;;;;26.03;51.49;101541.59;5054012;28;20365;-70
2022/08/21 10:35:48;;;;;;;7.72;2.80;;;;;;;25.93;47.35;101541.91;5046631;28;20037;-69
2022/08/21 10:38:32;;;;;;;5.38;2.50;;;;;;;25.91;49.44;101533.72;5059119;28;20024;-70
2022/08/21 10:40:57;;;;;;;4.40;2.50;;;;;;;25.99;48.67;101545.84;5060111;28;20028;-69
2022/08/21 10:43:44;;;;;;;8.70;2.70;;;;;;;25.85;50.25;101542.03;5063822;28;20467;-70
2022/08/21 10:46:41;;;;;;;7.35;3.00;;;;;;;25.70;51.04;101544.78;5064390;28;20060;-68
2022/08/21 10:49:31;;;;;;;5.63;3.22;;;;;;;25.91;50.92;101544.00;5051964;28;20048;-68
2022/08/21 10:52:32;;;;;;;7.88;2.78;;;;;;;26.19;49.64;101528.25;5055782;28;20083;-69
2022/08/21 10:55:10;;;;;;;4.90;2.70;;;;;;;26.17;48.90;101532.34;5061236;28;20040;-68
2022/08/21 10:57:41;;;;;;;6.50;2.75;;;;;;;25.86;48.02;101544.59;5059777;28;20573;-67
2022/08/21 11:00:15;;;;;;;6.00;2.90;;;;;;;25.62;47.03;101534.59;5064474;28;20040;-68
2022/08/21 11:02:59;;;;;;;6.85;2.80;;;;;;;25.44;48.47;101531.34;5063917;28;20044;-68
2022/08/21 11:05:31;;;;;;;7.05;2.50;;;;;;;25.39;49.62;101537.50;5044120;28;20460;-67
2022/08/21 11:08:03;;;;;;;8.77;2.78;;;;;;;25.38;50.14;101535.75;5062036;28;20040;-68
2022/08/21 11:10:38;;;;;;;7.53;3.22;;;;;;;25.33;50.66;101538.25;5063536;28;20141;-68
2022/08/21 11:13:30;;;;;;;8.07;2.72;;;;;;;25.38;49.80;101540.47;5040145;28;20113;-68
2022/08/21 11:16:05;;;;;;;9.25;2.47;;;;;;;25.37;47.04;101533.19;5054635;28;20059;-69
2022/08/21 11:18:39;;;;;;;8.75;2.40;;;;;;;25.52;48.40;101539.59;5058380;28;20063;-67
2022/08/21 11:21:31;;;;;;;5.47;2.00;;;;;;;26.00;51.30;101531.69;5050373;28;20075;-68
2022/08/21 11:24:09;;;;;;;6.40;2.38;;;;;;;26.56;48.42;101531.06;5060226;28;20616;-67
2022/08/21 11:26:42;;;;;;;4.70;2.08;;;;;;;26.70;45.40;101521.72;5059293;28;20132;-67
2022/08/21 11:29:23;;;;;;;7.93;2.30;;;;;;;27.03;46.83;101535.13;5048892;28;20063;-69
2022/08/21 11:32:27;;;;;;;5.87;2.17;;;;;;;27.16;46.82;101527.72;5066172;28;20043;-67
2022/08/21 11:35:11;;;;;;;6.45;2.05;;;;;;;26.96;41.59;101512.72;5068406;28;20125;-68